Latest Weather Observations for Rowley Shoals

IDW60801

Issued at 10:33 pm WST Saturday 23 January 2021 (issued every 10 minutes, with the page automatically refreshed every 10 minutes)

About weather observations | Map of weather stations | Latest weather observations for WA | Other Formats
Station Details ID: 200713 Name: ROWLEY SHOALS Lat: -17.52 Lon: 118.95 Height: 0.0 m
Data from the previous 72 hours. | See also: Recent months at Rowley Shoals
Date/Time
WST
Temp
°C
App
Temp
°C
Dew
Point
°C
Rel
Hum
%
Delta-T
°C
Wind Press
QNH
hPa
Press
MSL
hPa
Rain since
9am
mm
Dir  Spd
km/h
Gust
km/h
Spd
kts
Gust
kts
23/10:30pm 29.8 - - - - WSW 33 39 18 21 1005.7 1005.7 -
23/10:00pm 29.6 - - - - W 37 44 20 24 1005.8 1005.8 -
23/09:30pm 29.7 - - - - W 37 43 20 23 1005.7 1005.7 -
23/09:00pm 29.9 - - - - W 37 43 20 23 1005.5 1005.5 -
23/08:30pm 30.0 - - - - W 35 43 19 23 1005.5 1005.5 -
23/08:00pm 29.9 - - - - WSW 35 41 19 22 1005.2 1005.2 -
23/07:30pm 29.9 - - - - WSW 35 41 19 22 1004.8 1004.8 -
23/07:00pm 29.9 - - - - W 35 41 19 22 1004.5 1004.5 -
23/06:30pm 30.0 - - - - WSW 32 39 17 21 1004.1 1004.1 -
23/06:00pm 30.1 - - - - WSW 33 37 18 20 1003.9 1003.9 -
23/05:30pm 30.0 - - - - WSW 33 37 18 20 1003.9 1003.9 -
23/05:00pm 30.0 - - - - WSW 32 35 17 19 1003.8 1003.8 -
23/04:30pm 30.1 - - - - WSW 33 37 18 20 1003.7 1003.6 -
23/04:00pm 30.3 - - - - WSW 33 37 18 20 1003.7 1003.6 -
23/03:30pm 30.3 - - - - WSW 33 37 18 20 1003.6 1003.5 -
23/03:00pm 30.3 - - - - W 32 39 17 21 1003.7 1003.6 -
23/02:30pm 30.3 - - - - W 35 39 19 21 1003.9 1003.9 -
23/02:00pm 30.3 - - - - WSW 33 39 18 21 1003.9 1003.9 -
23/01:30pm 30.4 - - - - WSW 33 39 18 21 1003.9 1003.9 -
23/01:00pm 30.2 - - - - WSW 33 37 18 20 1003.9 1003.9 -
23/12:30pm 30.4 - - - - W 33 41 18 22 1004.0 1004.0 -
23/12:00pm 30.2 - - - - W 33 39 18 21 1004.1 1004.1 -
23/11:30am 30.2 - - - - W 33 39 18 21 1004.1 1004.1 -
23/11:00am 30.2 - - - - W 33 39 18 21 1004.2 1004.2 -
23/10:30am 30.1 - - - - W 32 35 17 19 1004.4 1004.4 -
23/10:00am 30.1 - - - - W 32 39 17 21 1004.4 1004.4 -
23/09:30am 30.1 - - - - W 33 39 18 21 1004.7 1004.7 -
23/09:00am 30.1 - - - - W 35 43 19 23 1004.5 1004.5 -
23/08:30am 30.1 - - - - W 37 43 20 23 1004.3 1004.3 -
23/08:00am 30.0 - - - - W 33 37 18 20 1004.3 1004.3 -
23/07:30am 30.0 - - - - W 33 41 18 22 1004.2 1004.2 -
23/07:00am 29.9 - - - - W 35 41 19 22 1003.8 1003.8 -
23/06:30am 29.9 - - - - W 35 41 19 22 1003.6 1003.5 -
23/06:00am 30.0 - - - - W 39 44 21 24 1002.9 1002.8 -
23/05:30am 29.9 - - - - W 39 44 21 24 1002.6 1002.5 -
23/05:00am 29.9 - - - - W 39 44 21 24 1002.2 1002.1 -
23/04:30am 30.0 - - - - W 39 46 21 25 1001.8 1001.7 -
23/04:00am 30.0 - - - - W 39 46 21 25 1001.8 1001.7 -
23/03:30am 28.5 - - - - WNW 35 50 19 27 1001.6 1001.5 -
23/03:00am 29.9 - - - - WNW 32 39 17 21 1001.5 1001.4 -
23/02:30am 29.7 - - - - WNW 33 37 18 20 1001.8 1001.7 -
23/02:00am 29.7 - - - - WNW 32 37 17 20 1001.8 1001.7 -
23/01:30am 29.9 - - - - WNW 32 37 17 20 1002.1 1002.0 -
23/01:00am 29.8 - - - - WNW 32 35 17 19 1002.4 1002.3 -
23/12:30am 29.8 - - - - WNW 28 32 15 17 1002.6 1002.5 -
23/12:00am 29.9 - - - - WNW 28 32 15 17 1002.8 1002.7 -
 
Date/Time
WST
Temp
°C
App
Temp
°C
Dew
Point
°C
Rel
Hum
%
Delta-T
°C
Wind Press
QNH
hPa
Press
MSL
hPa
Rain since
9am
mm
Dir  Spd
km/h
Gust
km/h
Spd
kts
Gust
kts
22/11:30pm 30.0 - - - - W 28 32 15 17 1003.0 1002.9 -
22/11:00pm 30.2 - - - - W 26 28 14 15 1003.3 1003.2 -
22/10:30pm 30.3 - - - - W 24 28 13 15 1003.6 1003.5 -
22/10:00pm 30.4 - - - - WSW 24 26 13 14 1003.7 1003.6 -
22/09:30pm 30.1 - - - - WSW 24 28 13 15 1003.5 1003.4 -
22/09:00pm 30.2 - - - - WSW 26 30 14 16 1003.0 1002.9 -
22/08:30pm 30.1 - - - - WSW 24 28 13 15 1002.6 1002.5 -
22/08:00pm 30.0 - - - - WSW 22 26 12 14 1002.4 1002.3 -
22/07:30pm 30.0 - - - - WSW 26 30 14 16 1002.1 1002.0 -
22/07:00pm 29.9 - - - - SW 28 33 15 18 1001.7 1001.6 -
22/06:30pm 29.6 - - - - WSW 28 35 15 19 1001.4 1001.3 -
22/06:00pm 29.5 - - - - SW 30 35 16 19 1001.2 1001.1 -
22/05:30pm 29.4 - - - - SW 30 37 16 20 1001.1 1001.0 -
22/05:00pm 29.4 - - - - SW 30 37 16 20 1001.1 1001.0 -
22/04:30pm 29.3 - - - - SW 33 41 18 22 1000.8 1000.7 -
22/04:00pm 29.2 - - - - SW 35 46 19 25 1000.9 1000.8 -
22/03:30pm 29.2 - - - - SW 35 44 19 24 1001.2 1001.1 -
22/03:00pm 28.8 - - - - SSW 35 44 19 24 1001.3 1001.2 -
22/02:30pm 28.7 - - - - SW 37 46 20 25 1001.6 1001.5 -
22/02:00pm 28.7 - - - - SW 37 44 20 24 1002.0 1001.9 -
22/01:30pm 28.1 - - - - SSW 28 35 15 19 1002.1 1002.0 -
22/01:00pm 27.2 - - - - SSW 32 39 17 21 1002.4 1002.3 -
22/12:30pm 27.3 - - - - S 30 37 16 20 1002.7 1002.6 -
22/12:00pm 27.9 - - - - SSW 30 37 16 20 1002.6 1002.5 -
22/11:30am 28.0 - - - - SSW 28 33 15 18 1003.0 1002.9 -
22/11:00am 27.9 - - - - S 20 28 11 15 1003.5 1003.4 -
22/10:30am 27.5 - - - - S 24 30 13 16 1004.0 1004.0 -
22/10:00am 27.7 - - - - S 22 30 12 16 1004.0 1004.0 -
22/09:30am 27.8 - - - - S 22 30 12 16 1004.0 1004.0 -
22/09:00am 27.6 - - - - S 28 35 15 19 1003.6 1003.5 -
22/08:30am 27.3 - - - - S 28 37 15 20 1002.8 1002.7 -
22/08:00am 27.8 - - - - S 30 39 16 21 1003.0 1002.9 -
22/07:30am 27.4 - - - - S 37 43 20 23 1002.7 1002.6 -
22/07:00am 26.2 - - - - S 41 50 22 27 1002.9 1002.8 -
22/06:32am 26.4 - - - - S 33 54 18 29 1002.5 1002.4 -
22/06:30am 26.9 - - - - S 33 46 18 25 1002.7 1002.6 -
22/06:01am 27.2 - - - - S 32 52 17 28 1001.9 1001.8 -
22/06:00am 27.0 - - - - S 30 46 16 25 1002.0 1001.9 -
22/05:30am 27.1 - - - - S 35 48 19 26 1001.7 1001.6 -
22/05:27am 27.1 - - - - S 37 46 20 25 1001.7 1001.6 -
22/05:00am 27.3 - - - - SSW 43 50 23 27 1001.2 1001.1 -
22/04:30am 26.2 - - - - SSW 52 63 28 34 1000.7 1000.6 -
22/04:00am 26.9 - - - - SSW 54 65 29 35 1000.5 1000.4 -
22/03:31am 26.8 - - - - S 48 67 26 36 1001.0 1000.9 -
22/03:30am 26.8 - - - - S 48 67 26 36 1001.1 1001.0 -
22/03:25am 26.0 - - - - S 44 67 24 36 1000.5 1000.4 -
22/03:22am 26.5 - - - - S 37 57 20 31 1000.6 1000.5 -
22/03:00am 27.9 - - - - S 35 43 19 23 1000.5 1000.4 -
22/02:30am 27.7 - - - - S 26 35 14 19 1000.5 1000.4 -
22/02:00am 27.0 - - - - SSW 35 43 19 23 1000.6 1000.5 -
22/01:38am 27.9 - - - - S 28 50 15 27 1000.5 1000.4 -
22/01:30am 27.9 - - - - S 26 35 14 19 1000.5 1000.4 -
22/01:00am 28.3 - - - - S 26 37 14 20 1000.5 1000.4 -
22/12:30am 27.8 - - - - S 32 41 17 22 1000.9 1000.8 -
22/12:00am 27.8 - - - - S 30 43 16 23 1001.3 1001.2 -
 
Date/Time
WST
Temp
°C
App
Temp
°C
Dew
Point
°C
Rel
Hum
%
Delta-T
°C
Wind Press
QNH
hPa
Press
MSL
hPa
Rain since
9am
mm
Dir  Spd
km/h
Gust
km/h
Spd
kts
Gust
kts
21/11:30pm 28.4 - - - - S 28 41 15 22 1001.4 1001.3 -
21/11:00pm 28.4 - - - - SSE 30 43 16 23 1001.8 1001.7 -
21/10:30pm 28.0 - - - - SSE 41 54 22 29 1001.9 1001.8 -
21/10:00pm 27.9 - - - - SE 46 54 25 29 1001.3 1001.2 -
21/09:30pm 27.6 - - - - SSE 41 46 22 25 1001.6 1001.5 -
21/09:00pm 27.7 - - - - SE 43 52 23 28 1001.4 1001.3 -
21/08:30pm 27.4 - - - - SE 48 56 26 30 1001.1 1001.0 -
21/08:00pm 27.7 - - - - SE 44 54 24 29 1001.1 1001.0 -
21/07:30pm 27.5 - - - - SSE 48 56 26 30 1001.2 1001.1 -
21/07:00pm 27.8 - - - - SE 54 65 29 35 1001.3 1001.2 -
21/06:30pm 27.7 - - - - SE 56 65 30 35 1000.6 1000.5 -
21/06:00pm 27.9 - - - - SE 63 74 34 40 999.9 999.8 -
21/05:30pm 27.4 - - - - ESE 54 65 29 35 1000.5 1000.4 -
21/05:00pm 27.2 - - - - SE 52 61 28 33 1000.8 1000.7 -
21/04:30pm 27.3 - - - - SE 46 56 25 30 1001.3 1001.2 -
21/04:00pm 27.4 - - - - ESE 50 59 27 32 1001.2 1001.1 -
21/03:30pm 27.7 - - - - SE 48 59 26 32 1001.9 1001.8 -
21/03:00pm 27.5 - - - - SE 39 48 21 26 1002.1 1002.0 -
21/02:30pm 27.8 - - - - SE 39 50 21 27 1002.4 1002.3 -
21/02:00pm 27.2 - - - - SE 39 46 21 25 1002.8 1002.7 -
21/01:30pm 27.3 - - - - SE 43 50 23 27 1003.4 1003.3 -
21/01:00pm 27.3 - - - - SE 44 56 24 30 1003.7 1003.6 -
21/12:30pm 26.8 - - - - SE 41 54 22 29 1004.3 1004.3 -
21/12:00pm 26.8 - - - - ESE 43 54 23 29 1004.9 1004.9 -
21/11:56am 26.9 - - - - ESE 44 54 24 29 1005.0 1005.0 -
21/11:30am 26.5 - - - - SE 33 41 18 22 1005.6 1005.6 -
21/11:00am 26.1 - - - - SE 44 54 24 29 1006.1 1006.1 -
21/10:30am 25.7 - - - - SSE 43 54 23 29 1005.9 1005.9 -
21/10:26am 26.0 - - - - SE 37 46 20 25 1006.2 1006.2 -
21/10:00am 26.3 - - - - ESE 44 54 24 29 1006.6 1006.6 -
21/09:30am 26.5 - - - - ESE 44 63 24 34 1006.2 1006.2 -
21/09:28am 27.5 - - - - ESE 41 59 22 32 1006.3 1006.3 -
21/09:00am 27.9 - - - - ESE 33 41 18 22 1006.4 1006.4 -
21/08:30am 27.6 - - - - ESE 28 33 15 18 1006.2 1006.2 -
21/08:00am 27.7 - - - - ESE 30 37 16 20 1006.3 1006.3 -
21/07:30am 28.0 - - - - E 32 41 17 22 1006.2 1006.2 -
21/07:00am 28.2 - - - - E 30 37 16 20 1006.2 1006.2 -
21/06:30am 28.1 - - - - E 26 32 14 17 1006.0 1006.0 -
21/06:00am 28.4 - - - - E 24 30 13 16 1005.8 1005.8 -
21/05:30am 28.6 - - - - ENE 20 28 11 15 1005.7 1005.7 -
21/05:00am 28.9 - - - - NE 22 28 12 15 1005.4 1005.4 -
21/04:30am 29.4 - - - - NE 20 24 11 13 1005.3 1005.3 -
21/04:00am 29.4 - - - - NE 22 28 12 15 1005.0 1005.0 -
21/03:30am 30.0 - - - - NE 24 30 13 16 1004.7 1004.7 -
21/03:00am 29.6 - - - - NE 19 24 10 13 1005.1 1005.1 -
21/02:30am 29.4 - - - - NNE 17 19 9 10 1005.2 1005.2 -
21/02:00am 29.2 - - - - N 11 13 6 7 1005.1 1005.1 -
21/01:30am 29.2 - - - - NE 17 20 9 11 1005.3 1005.3 -
21/01:00am 29.0 - - - - NE 17 19 9 10 1005.7 1005.7 -
21/12:30am 29.1 - - - - NE 22 26 12 14 1006.2 1006.2 -
21/12:00am 28.8 - - - - N 17 24 9 13 1005.5 1005.5 -
 
Date/Time
WST
Temp
°C
App
Temp
°C
Dew
Point
°C
Rel
Hum
%
Delta-T
°C
Wind Press
QNH
hPa
Press
MSL
hPa
Rain since
9am
mm
Dir  Spd
km/h
Gust
km/h
Spd
kts
Gust
kts
20/11:30pm 30.5 - - - - NNW 9 13 5 7 1005.9 1005.9 -
20/11:00pm 30.5 - - - - NNW 7 9 4 5 1006.1 1006.1 -

Other formats

Comma delimited format used in spreadsheet applications
http://www.bom.gov.au/fwo/IDW60801/IDW60801.94207.axf

JavaScript Object Notation format (JSON) in row-major order
http://www.bom.gov.au/fwo/IDW60801/IDW60801.94207.json

Data quality

Most of these data are generated automatically and are frequently updated. Quality checks on data are not normally performed. It is possible for incorrect values to appear. Refer to information at About Latest Weather Observations and please check the disclaimer before using these data.